Terminal Aerodrome Forecast
Issued by NWS

Home | Current Version | Previous Version | Text Only | Print | Product List | Glossary On
Versions: 1 2 3 4 5 6 7 8 9 10 11 12 13
002
FTUS45 KRIW 082328
TAFCPR
TAF
KCPR 082328Z 0900/0924 VRB05KT P6SM BKN250
     FM090200 21007KT P6SM SCT100 BKN150 WS020/23035KT
     FM090900 23011G18KT P6SM VCSH SCT100 BKN150
     FM091500 22012G20KT P6SM SCT150=

USA.gov is the U.S. government's official web portal to all federal, state and local government web resources and services.